Applegate, Michigan
Current Conditions -  °F | °C
As of 4:03 AM on Friday 31 Oct 2014 (Local Time) from CYZR Reporting Station
Overcast Overcast  
Wind Chill:   Ceiling: 4100
Heat Index:   Visibility: 9mi
Dew Point:   Wind: 7mph
Humidity: 81%   Direction: 190°S
Pressure: 29.93"   Gusts: NA
Location:  43.36°N, 82.64°W
Report Text: CYZR 310803Z AUTO 19006KT 9SM OVC041 07/04 A2993 RMK SLP140
Loading
Personal Weather Stations






























Interactive Weather Map
Tropical Storm Tracking
New forecast layout! Learn more

10-Day Weather Forecast

Advertisements
Track Severe Weather on mobile